sensor_id;sensor_type;location;lat;lon;timestamp;P1;durP1;ratioP1;P2;durP2;ratioP2
47103;SDS011;32853;52.164;5.400;2023-03-15T11:40:29;1.80;;;0.30;;
47103;SDS011;32853;52.164;5.400;2023-03-15T11:45:33;2.30;;;0.17;;
47103;SDS011;32853;52.164;5.400;2023-03-15T11:50:57;0.40;;;0.20;;
47103;SDS011;32853;52.164;5.400;2023-03-15T11:53:24;6.37;;;0.87;;
47103;SDS011;32853;52.164;5.400;2023-03-15T11:56:01;2.78;;;0.20;;
47103;SDS011;32853;52.164;5.400;2023-03-15T12:01:32;4.25;;;1.08;;
47103;SDS011;32853;52.164;5.400;2023-03-15T12:06:57;4.65;;;0.40;;
47103;SDS011;32853;52.164;5.400;2023-03-15T12:19:56;6.50;;;0.63;;
47103;SDS011;32853;52.164;5.400;2023-03-15T12:22:29;2.88;;;0.50;;
47103;SDS011;32853;52.164;5.400;2023-03-15T12:24:57;4.97;;;0.57;;
47103;SDS011;32853;52.164;5.400;2023-03-15T12:27:51;4.65;;;0.40;;
47103;SDS011;32853;52.164;5.400;2023-03-15T12:30:23;1.05;;;0.40;;
47103;SDS011;32853;52.164;5.400;2023-03-15T12:32:55;1.80;;;0.40;;
47103;SDS011;32853;52.164;5.400;2023-03-15T12:35:22;0.93;;;0.30;;
47103;SDS011;32853;52.164;5.400;2023-03-15T12:37:53;4.00;;;0.50;;
47103;SDS011;32853;52.164;5.400;2023-03-15T12:58:31;1.73;;;0.38;;
47103;SDS011;32853;52.164;5.400;2023-03-15T13:01:04;5.55;;;0.43;;
47103;SDS011;32853;52.164;5.400;2023-03-15T13:03:33;7.10;;;0.40;;
47103;SDS011;32853;52.164;5.400;2023-03-15T13:11:51;4.93;;;0.45;;
47103;SDS011;32853;52.164;5.400;2023-03-15T13:19:53;5.28;;;0.57;;
47103;SDS011;32853;52.164;5.400;2023-03-15T13:22:49;3.90;;;1.00;;
47103;SDS011;32853;52.164;5.400;2023-03-15T13:25:43;3.60;;;0.60;;
47103;SDS011;32853;52.164;5.400;2023-03-15T13:28:24;2.00;;;0.40;;
47103;SDS011;32853;52.164;5.400;2023-03-15T13:31:09;2.30;;;0.40;;
47103;SDS011;32853;52.164;5.400;2023-03-15T13:33:37;4.00;;;0.70;;
47103;SDS011;32853;52.164;5.400;2023-03-15T13:36:05;6.25;;;0.32;;
47103;SDS011;32853;52.164;5.400;2023-03-15T13:38:40;1.80;;;0.30;;
47103;SDS011;32853;52.164;5.400;2023-03-15T13:43:45;3.20;;;0.30;;
47103;SDS011;32853;52.164;5.400;2023-03-15T13:46:13;11.30;;;0.50;;
47103;SDS011;32853;52.164;5.400;2023-03-15T13:48:41;4.20;;;0.73;;
47103;SDS011;32853;52.164;5.400;2023-03-15T13:56:59;3.65;;;0.90;;
47103;SDS011;32853;52.164;5.400;2023-03-15T13:59:46;2.45;;;0.47;;
47103;SDS011;32853;52.164;5.400;2023-03-15T14:05:07;0.70;;;0.30;;
47103;SDS011;32853;52.164;5.400;2023-03-15T14:07:45;0.65;;;0.30;;
47103;SDS011;32853;52.164;5.400;2023-03-15T14:12:48;2.72;;;0.30;;
47103;SDS011;32853;52.164;5.400;2023-03-15T14:18:02;2.22;;;0.50;;
47103;SDS011;32853;52.164;5.400;2023-03-15T14:20:42;1.60;;;0.32;;
47103;SDS011;32853;52.164;5.400;2023-03-15T14:23:16;2.28;;;0.35;;
47103;SDS011;32853;52.164;5.400;2023-03-15T14:25:43;2.00;;;0.30;;
47103;SDS011;32853;52.164;5.400;2023-03-15T14:28:18;1.65;;;0.30;;
47103;SDS011;32853;52.164;5.400;2023-03-15T14:30:56;4.70;;;0.60;;
47103;SDS011;32853;52.164;5.400;2023-03-15T14:35:59;1.20;;;0.60;;
47103;SDS011;32853;52.164;5.400;2023-03-15T14:38:32;3.22;;;0.45;;
47103;SDS011;32853;52.164;5.400;2023-03-15T14:41:10;1.83;;;0.30;;
47103;SDS011;32853;52.164;5.400;2023-03-15T14:43:49;5.50;;;0.40;;
47103;SDS011;32853;52.164;5.400;2023-03-15T14:46:21;2.00;;;0.40;;
47103;SDS011;32853;52.164;5.400;2023-03-15T14:48:48;1.08;;;0.30;;
47103;SDS011;32853;52.164;5.400;2023-03-15T14:51:15;6.47;;;0.55;;
47103;SDS011;32853;52.164;5.400;2023-03-15T14:53:43;3.78;;;0.40;;
47103;SDS011;32853;52.164;5.400;2023-03-15T14:56:23;4.80;;;0.85;;
47103;SDS011;32853;52.164;5.400;2023-03-15T14:58:52;4.82;;;0.60;;
47103;SDS011;32853;52.164;5.400;2023-03-15T15:01:19;2.03;;;0.30;;
47103;SDS011;32853;52.164;5.400;2023-03-15T15:04:01;0.50;;;0.28;;
47103;SDS011;32853;52.164;5.400;2023-03-15T15:09:01;1.00;;;0.40;;
47103;SDS011;32853;52.164;5.400;2023-03-15T15:11:29;2.15;;;0.30;;
47103;SDS011;32853;52.164;5.400;2023-03-15T15:13:55;0.35;;;0.10;;
47103;SDS011;32853;52.164;5.400;2023-03-15T15:16:21;1.63;;;0.43;;
47103;SDS011;32853;52.164;5.400;2023-03-15T15:18:49;4.85;;;0.50;;
47103;SDS011;32853;52.164;5.400;2023-03-15T15:21:26;0.28;;;0.20;;
47103;SDS011;32853;52.164;5.400;2023-03-15T15:23:54;3.28;;;0.30;;
47103;SDS011;32853;52.164;5.400;2023-03-15T15:26:21;4.53;;;0.60;;
47103;SDS011;32853;52.164;5.400;2023-03-15T15:28:53;2.45;;;0.68;;
47103;SDS011;32853;52.164;5.400;2023-03-15T15:31:20;1.10;;;0.40;;
47103;SDS011;32853;52.164;5.400;2023-03-15T15:33:48;3.28;;;0.50;;
47103;SDS011;32853;52.164;5.400;2023-03-15T15:36:20;2.72;;;0.30;;
47103;SDS011;32853;52.164;5.400;2023-03-15T15:38:53;3.15;;;0.75;;
47103;SDS011;32853;52.164;5.400;2023-03-15T15:41:37;2.70;;;0.30;;
47103;SDS011;32853;52.164;5.400;2023-03-15T15:44:16;3.22;;;0.40;;
47103;SDS011;32853;52.164;5.400;2023-03-15T15:46:51;4.07;;;0.60;;
47103;SDS011;32853;52.164;5.400;2023-03-15T15:49:17;2.28;;;0.38;;
47103;SDS011;32853;52.164;5.400;2023-03-15T15:54:28;1.20;;;0.38;;
47103;SDS011;32853;52.164;5.400;2023-03-15T15:56:59;3.38;;;0.50;;
47103;SDS011;32853;52.164;5.400;2023-03-15T15:59:32;1.42;;;0.30;;
47103;SDS011;32853;52.164;5.400;2023-03-15T16:01:58;3.38;;;1.23;;
47103;SDS011;32853;52.164;5.400;2023-03-15T16:04:24;1.25;;;0.63;;
47103;SDS011;32853;52.164;5.400;2023-03-15T16:06:58;2.58;;;0.70;;
47103;SDS011;32853;52.164;5.400;2023-03-15T16:09:32;2.78;;;0.82;;
47103;SDS011;32853;52.164;5.400;2023-03-15T16:12:01;0.85;;;0.50;;
47103;SDS011;32853;52.164;5.400;2023-03-15T16:17:10;3.53;;;0.45;;
47103;SDS011;32853;52.164;5.400;2023-03-15T16:19:47;6.25;;;0.68;;
47103;SDS011;32853;52.164;5.400;2023-03-15T16:22:13;2.33;;;0.30;;
47103;SDS011;32853;52.164;5.400;2023-03-15T16:27:13;1.73;;;0.50;;
47103;SDS011;32853;52.164;5.400;2023-03-15T16:29:41;2.58;;;0.45;;
47103;SDS011;32853;52.164;5.400;2023-03-15T16:32:11;3.90;;;0.68;;
47103;SDS011;32853;52.164;5.400;2023-03-15T16:34:38;4.75;;;0.65;;
47103;SDS011;32853;52.164;5.400;2023-03-15T16:37:04;3.45;;;0.70;;
47103;SDS011;32853;52.164;5.400;2023-03-15T16:39:30;3.90;;;0.98;;
47103;SDS011;32853;52.164;5.400;2023-03-15T16:41:55;7.32;;;1.10;;
47103;SDS011;32853;52.164;5.400;2023-03-15T16:44:28;2.80;;;1.00;;
47103;SDS011;32853;52.164;5.400;2023-03-15T16:46:53;0.77;;;0.35;;
47103;SDS011;32853;52.164;5.400;2023-03-15T16:49:18;2.53;;;0.80;;
47103;SDS011;32853;52.164;5.400;2023-03-15T16:51:45;2.45;;;0.57;;
47103;SDS011;32853;52.164;5.400;2023-03-15T16:54:13;2.05;;;0.68;;
47103;SDS011;32853;52.164;5.400;2023-03-15T16:56:39;1.67;;;0.55;;
47103;SDS011;32853;52.164;5.400;2023-03-15T16:59:04;0.68;;;0.40;;
47103;SDS011;32853;52.164;5.400;2023-03-15T17:01:30;1.77;;;0.32;;
47103;SDS011;32853;52.164;5.400;2023-03-15T17:03:59;3.75;;;0.70;;
47103;SDS011;32853;52.164;5.400;2023-03-15T17:06:25;3.08;;;1.55;;
47103;SDS011;32853;52.164;5.400;2023-03-15T17:08:52;3.08;;;0.60;;
47103;SDS011;32853;52.164;5.400;2023-03-15T17:11:45;2.13;;;0.60;;
47103;SDS011;32853;52.164;5.400;2023-03-15T17:14:17;4.38;;;1.13;;
47103;SDS011;32853;52.164;5.400;2023-03-15T17:16:48;1.35;;;0.73;;
47103;SDS011;32853;52.164;5.400;2023-03-15T17:19:15;0.70;;;0.60;;
47103;SDS011;32853;52.164;5.400;2023-03-15T17:21:44;0.95;;;0.55;;
47103;SDS011;32853;52.164;5.400;2023-03-15T17:24:10;5.45;;;0.80;;
47103;SDS011;32853;52.164;5.400;2023-03-15T17:29:15;6.10;;;0.60;;
47103;SDS011;32853;52.164;5.400;2023-03-15T17:31:41;1.92;;;0.50;;
47103;SDS011;32853;52.164;5.400;2023-03-15T17:34:08;1.75;;;0.60;;
47103;SDS011;32853;52.164;5.400;2023-03-15T17:36:34;3.60;;;0.45;;
47103;SDS011;32853;52.164;5.400;2023-03-15T17:39:04;8.98;;;0.85;;
47103;SDS011;32853;52.164;5.400;2023-03-15T17:41:31;3.22;;;0.50;;
47103;SDS011;32853;52.164;5.400;2023-03-15T17:44:00;1.75;;;0.90;;
47103;SDS011;32853;52.164;5.400;2023-03-15T17:46:28;2.72;;;0.55;;
47103;SDS011;32853;52.164;5.400;2023-03-15T17:49:00;3.83;;;0.60;;
47103;SDS011;32853;52.164;5.400;2023-03-15T17:59:31;2.47;;;0.77;;
47103;SDS011;32853;52.164;5.400;2023-03-15T18:01:57;6.85;;;0.60;;
47103;SDS011;32853;52.164;5.400;2023-03-15T18:04:22;6.63;;;0.82;;
47103;SDS011;32853;52.164;5.400;2023-03-15T18:09:19;4.78;;;0.90;;
47103;SDS011;32853;52.164;5.400;2023-03-15T18:11:46;3.13;;;1.05;;
47103;SDS011;32853;52.164;5.400;2023-03-15T18:14:12;1.65;;;0.80;;
47103;SDS011;32853;52.164;5.400;2023-03-15T18:16:39;7.13;;;1.27;;
47103;SDS011;32853;52.164;5.400;2023-03-15T18:22:57;5.20;;;1.27;;
47103;SDS011;32853;52.164;5.400;2023-03-15T18:32:34;4.82;;;1.02;;
47103;SDS011;32853;52.164;5.400;2023-03-15T18:41:35;2.95;;;0.90;;
47103;SDS011;32853;52.164;5.400;2023-03-15T18:44:25;5.10;;;2.05;;
47103;SDS011;32853;52.164;5.400;2023-03-15T18:51:26;4.82;;;1.55;;
47103;SDS011;32853;52.164;5.400;2023-03-15T18:54:27;3.22;;;1.77;;
47103;SDS011;32853;52.164;5.400;2023-03-15T19:00:40;10.05;;;1.80;;
47103;SDS011;32853;52.164;5.400;2023-03-15T19:03:22;5.63;;;1.35;;
47103;SDS011;32853;52.164;5.400;2023-03-15T19:05:53;2.40;;;0.95;;
47103;SDS011;32853;52.164;5.400;2023-03-15T19:21:37;3.13;;;1.27;;
47103;SDS011;32853;52.164;5.400;2023-03-15T19:24:15;5.47;;;1.52;;
47103;SDS011;32853;52.164;5.400;2023-03-15T19:27:04;3.33;;;1.55;;
47103;SDS011;32853;52.164;5.400;2023-03-15T19:29:33;4.03;;;1.23;;
47103;SDS011;32853;52.164;5.400;2023-03-15T19:32:29;7.78;;;1.50;;
47103;SDS011;32853;52.164;5.400;2023-03-15T19:35:12;4.13;;;1.40;;
47103;SDS011;32853;52.164;5.400;2023-03-15T19:37:58;5.35;;;1.33;;
47103;SDS011;32853;52.164;5.400;2023-03-15T19:40:24;3.53;;;1.30;;
47103;SDS011;32853;52.164;5.400;2023-03-15T20:02:55;7.40;;;1.98;;
47103;SDS011;32853;52.164;5.400;2023-03-15T20:05:39;9.55;;;1.95;;
47103;SDS011;32853;52.164;5.400;2023-03-15T20:08:40;4.47;;;1.92;;
47103;SDS011;32853;52.164;5.400;2023-03-15T20:11:43;4.47;;;2.25;;
47103;SDS011;32853;52.164;5.400;2023-03-15T20:17:25;7.18;;;2.65;;
47103;SDS011;32853;52.164;5.400;2023-03-15T20:27:07;4.97;;;1.77;;
47103;SDS011;32853;52.164;5.400;2023-03-15T20:33:40;11.02;;;1.80;;
47103;SDS011;32853;52.164;5.400;2023-03-15T20:36:48;4.22;;;1.77;;
47103;SDS011;32853;52.164;5.400;2023-03-15T20:39:23;5.32;;;1.90;;
47103;SDS011;32853;52.164;5.400;2023-03-15T20:48:47;5.53;;;2.13;;
47103;SDS011;32853;52.164;5.400;2023-03-15T20:51:48;3.20;;;1.80;;
47103;SDS011;32853;52.164;5.400;2023-03-15T20:54:32;8.02;;;2.40;;
47103;SDS011;32853;52.164;5.400;2023-03-15T20:57:13;6.63;;;2.45;;
47103;SDS011;32853;52.164;5.400;2023-03-15T20:59:56;5.90;;;1.90;;
47103;SDS011;32853;52.164;5.400;2023-03-15T21:06:18;6.50;;;1.98;;
47103;SDS011;32853;52.164;5.400;2023-03-15T21:09:38;7.22;;;1.90;;
47103;SDS011;32853;52.164;5.400;2023-03-15T21:12:19;5.20;;;1.85;;
47103;SDS011;32853;52.164;5.400;2023-03-15T21:15:30;7.95;;;1.83;;
47103;SDS011;32853;52.164;5.400;2023-03-15T21:18:03;3.20;;;1.92;;
47103;SDS011;32853;52.164;5.400;2023-03-15T21:24:24;6.90;;;1.85;;
47103;SDS011;32853;52.164;5.400;2023-03-15T21:26:55;6.57;;;2.10;;
47103;SDS011;32853;52.164;5.400;2023-03-15T21:32:38;4.40;;;1.75;;
47103;SDS011;32853;52.164;5.400;2023-03-15T21:38:22;2.35;;;1.55;;
47103;SDS011;32853;52.164;5.400;2023-03-15T21:41:04;4.43;;;1.58;;
47103;SDS011;32853;52.164;5.400;2023-03-15T22:01:01;3.10;;;1.80;;
47103;SDS011;32853;52.164;5.400;2023-03-15T22:03:50;6.55;;;1.55;;
47103;SDS011;32853;52.164;5.400;2023-03-15T22:06:55;4.35;;;1.60;;
47103;SDS011;32853;52.164;5.400;2023-03-15T22:09:21;4.55;;;2.17;;
47103;SDS011;32853;52.164;5.400;2023-03-15T22:14:52;7.15;;;1.90;;
47103;SDS011;32853;52.164;5.400;2023-03-15T22:17:49;5.70;;;1.65;;
47103;SDS011;32853;52.164;5.400;2023-03-15T22:20:21;7.10;;;2.20;;
47103;SDS011;32853;52.164;5.400;2023-03-15T22:22:48;5.72;;;2.03;;
47103;SDS011;32853;52.164;5.400;2023-03-15T22:29:01;6.07;;;2.00;;
47103;SDS011;32853;52.164;5.400;2023-03-15T22:31:27;4.13;;;2.08;;
47103;SDS011;32853;52.164;5.400;2023-03-15T22:33:56;2.60;;;1.63;;
47103;SDS011;32853;52.164;5.400;2023-03-15T22:36:22;3.72;;;1.70;;
47103;SDS011;32853;52.164;5.400;2023-03-15T22:39:36;2.25;;;1.65;;
47103;SDS011;32853;52.164;5.400;2023-03-15T22:41:51;6.70;;;1.63;;
47103;SDS011;32853;52.164;5.400;2023-03-15T22:44:22;3.15;;;1.73;;
47103;SDS011;32853;52.164;5.400;2023-03-15T22:47:10;3.50;;;1.83;;
47103;SDS011;32853;52.164;5.400;2023-03-15T22:52:45;4.45;;;2.00;;
47103;SDS011;32853;52.164;5.400;2023-03-15T22:55:18;3.63;;;1.40;;
47103;SDS011;32853;52.164;5.400;2023-03-15T22:57:46;15.63;;;2.28;;
47103;SDS011;32853;52.164;5.400;2023-03-15T23:00:14;6.65;;;1.95;;
47103;SDS011;32853;52.164;5.400;2023-03-15T23:05:23;10.55;;;1.92;;
47103;SDS011;32853;52.164;5.400;2023-03-15T23:07:49;4.93;;;2.13;;
47103;SDS011;32853;52.164;5.400;2023-03-15T23:10:21;10.85;;;2.15;;
47103;SDS011;32853;52.164;5.400;2023-03-15T23:13:10;5.30;;;2.13;;
47103;SDS011;32853;52.164;5.400;2023-03-15T23:15:45;6.03;;;1.80;;
47103;SDS011;32853;52.164;5.400;2023-03-15T23:21:36;4.57;;;1.65;;
47103;SDS011;32853;52.164;5.400;2023-03-15T23:24:58;4.38;;;1.88;;
47103;SDS011;32853;52.164;5.400;2023-03-15T23:31:33;4.82;;;1.70;;
47103;SDS011;32853;52.164;5.400;2023-03-15T23:46:36;4.68;;;2.00;;
47103;SDS011;32853;52.164;5.400;2023-03-15T23:49:08;5.90;;;2.05;;
47103;SDS011;32853;52.164;5.400;2023-03-15T23:51:34;9.88;;;3.17;;
47103;SDS011;32853;52.164;5.400;2023-03-15T23:57:06;2.45;;;1.58;;
47103;SDS011;32853;52.164;5.400;2023-03-15T23:59:39;2.38;;;1.70;;
